CheckWX is a tool to help pilots better visualize weather data.  It is not intended as a substitute for an official pre-flight weather briefing.

14:00:12 UTC

UIII METAR
Irkutsk Airport
Irkutsk, Russian Federation
Current

30 mins ago

UIII 181330Z 23001MPS 4200 BR NSC 15/15 Q1011 R30/60D NOSIG RMK QFE714/0952
Observed
Aug-18 @ 13:30 UTC
Wind
  • 230° at 2 KTS
Visibility
4,200 meters
Flight Rules
IFR
Conditions
Mist
Cloud Levels
  • Clear skies
Temperature
15°C / 59°F
Dewpoint
15°C / 59°F
Humidity
100%
Altimeter
29.85" Hg
Pressure
1010.92 hPa
Previous

60 mins ago

UIII 181300Z 00000MPS 6000 NSC 16/13 Q1011 R30/CLRD60 NOSIG RMK QFE714/0952
Observed
Aug-18 @ 13:00 UTC
Visibility
6,000 meters
Flight Rules
MVFR
Cloud Levels
  • Clear skies
Temperature
16°C / 61°F
Dewpoint
13°C / 55°F
Humidity
83%
Altimeter
29.85" Hg
Pressure
1010.92 hPa
Previous

60 mins ago

UIII 181300Z 00000MPS 6000 NSC 16/13 Q1011 R30/60D NOSIG RMK QFE714/0952
Observed
Aug-18 @ 13:00 UTC
Visibility
6,000 meters
Flight Rules
MVFR
Cloud Levels
  • Clear skies
Temperature
16°C / 61°F
Dewpoint
13°C / 55°F
Humidity
83%
Altimeter
29.85" Hg
Pressure
1010.92 hPa